Time;durP1;ratioP1;P1;durP2;ratioP2;P2;SDS_P1;SDS_P2;PMS_P1;PMS_P2;Temp;Humidity;BMP_temperature;BMP_pressure;BME280_temperature;BME280_humidity;BME280_pressure;Samples;Min_cycle;Max_cycle;Signal;HPM_P1;HPM_P2
2022/12/16 00:00:07;;;;;;;60.35;27.73;;;;;;;;;;6237644;28;20444;-78
2022/12/16 00:03:07;;;;;;;46.47;21.45;;;;;;;;;;6238224;28;20041;-77
2022/12/16 00:06:08;;;;;;;56.47;24.30;;;;;;;;;;6230504;28;20016;-76
2022/12/16 00:09:08;;;;;;;56.90;25.47;;;;;;;;;;6231571;28;20026;-77
2022/12/16 00:12:09;;;;;;;33.50;16.63;;;;;;;;;;6225165;28;20022;-77
2022/12/16 00:15:09;;;;;;;48.77;24.80;;;;;;;;;;6230780;28;20018;-76
2022/12/16 00:18:09;;;;;;;39.57;19.63;;;;;;;;;;6225328;28;20467;-76
2022/12/16 00:21:10;;;;;;;62.20;23.33;;;;;;;;;;6228547;23;20077;-90
2022/12/16 00:24:10;;;;;;;57.73;26.47;;;;;;;;;;6220409;28;20053;-90
2022/12/16 00:27:10;;;;;;;61.37;25.77;;;;;;;;;;6220776;28;20049;-90
2022/12/16 00:30:11;;;;;;;63.83;27.50;;;;;;;;;;6223369;28;20018;-90
2022/12/16 00:33:11;;;;;;;74.50;29.57;;;;;;;;;;6223459;28;20025;-90
2022/12/16 00:36:12;;;;;;;62.50;27.93;;;;;;;;;;6224211;28;20010;-90
2022/12/16 00:39:12;;;;;;;62.40;26.80;;;;;;;;;;6222815;28;20018;-90
2022/12/16 00:42:12;;;;;;;73.63;28.53;;;;;;;;;;6221236;28;20060;-90
2022/12/16 00:45:13;;;;;;;67.40;30.87;;;;;;;;;;6220900;28;20029;-90
2022/12/16 00:48:13;;;;;;;57.80;25.23;;;;;;;;;;6222377;28;20505;-90
2022/12/16 00:51:14;;;;;;;55.67;27.47;;;;;;;;;;6229851;28;20022;-90
2022/12/16 00:54:14;;;;;;;60.70;23.93;;;;;;;;;;6226757;28;20223;-90
2022/12/16 00:57:14;;;;;;;67.27;27.53;;;;;;;;;;6221749;28;20022;-90
2022/12/16 01:00:16;;;;;;;57.10;27.70;;;;;;;;;;6223585;28;20076;-90
2022/12/16 01:03:16;;;;;;;54.83;24.60;;;;;;;;;;6204512;28;20368;-90
2022/12/16 01:06:16;;;;;;;71.97;31.57;;;;;;;;;;6222056;28;20236;-90
2022/12/16 01:09:16;;;;;;;69.23;31.83;;;;;;;;;;6221910;28;20044;-90
2022/12/16 01:12:17;;;;;;;76.50;33.20;;;;;;;;;;6221469;28;20022;-90
2022/12/16 01:15:17;;;;;;;72.77;31.93;;;;;;;;;;6220306;28;20018;-90
2022/12/16 01:18:18;;;;;;;61.67;27.53;;;;;;;;;;6219400;28;20054;-90
2022/12/16 01:21:18;;;;;;;74.73;30.67;;;;;;;;;;6222876;28;20156;-90
2022/12/16 01:24:18;;;;;;;59.27;29.37;;;;;;;;;;6222665;28;20022;-90
2022/12/16 01:27:18;;;;;;;65.03;24.50;;;;;;;;;;6219539;28;20006;-90
2022/12/16 01:30:19;;;;;;;69.37;30.07;;;;;;;;;;6223511;28;20030;-90
2022/12/16 01:33:19;;;;;;;57.33;26.33;;;;;;;;;;6224041;28;20022;-90
2022/12/16 01:36:20;;;;;;;60.87;28.30;;;;;;;;;;6222703;28;20575;-90
2022/12/16 01:39:20;;;;;;;63.83;28.27;;;;;;;;;;6220967;28;20021;-91
2022/12/16 01:42:21;;;;;;;68.20;28.63;;;;;;;;;;6229948;28;20515;-91
2022/12/16 01:45:27;;;;;;;52.03;24.63;;;;;;;;;;6225046;28;20036;-91
2022/12/16 01:48:34;;;;;;;60.42;24.52;;;;;;;;;;6218277;28;20500;-91
2022/12/16 01:51:35;;;;;;;59.15;28.25;;;;;;;;;;6221687;28;20014;-91
2022/12/16 01:54:38;;;;;;;60.42;27.42;;;;;;;;;;6211381;28;20021;-91
2022/12/16 01:57:45;;;;;;;60.17;27.45;;;;;;;;;;6217642;28;20026;-91
2022/12/16 02:00:46;;;;;;;65.05;28.02;;;;;;;;;;6221678;28;20472;-91
2022/12/16 02:03:46;;;;;;;54.33;23.00;;;;;;;;;;6223134;28;20029;-91
2022/12/16 02:06:47;;;;;;;66.10;29.83;;;;;;;;;;6225954;28;20025;-91
2022/12/16 02:09:47;;;;;;;61.67;29.40;;;;;;;;;;6227950;28;20022;-91
2022/12/16 02:12:55;;;;;;;54.70;27.70;;;;;;;;;;6227893;28;20025;-91
2022/12/16 02:16:00;;;;;;;71.18;29.08;;;;;;;;;;6225626;28;20014;-91
2022/12/16 02:19:19;;;;;;;52.33;24.00;;;;;;;;;;6228638;28;20015;-91
2022/12/16 02:22:31;;;;;;;67.43;29.33;;;;;;;;;;6224560;28;20096;-91
2022/12/16 02:25:38;;;;;;;63.35;28.05;;;;;;;;;;6230696;28;20437;-91
2022/12/16 02:28:41;;;;;;;60.90;28.52;;;;;;;;;;6225853;28;20018;-91
2022/12/16 02:32:04;;;;;;;60.72;29.10;;;;;;;;;;6225615;28;20014;-91
2022/12/16 02:35:09;;;;;;;66.00;30.58;;;;;;;;;;6225789;28;20017;-91
2022/12/16 02:38:29;;;;;;;57.70;28.55;;;;;;;;;;6223120;28;20018;-91
2022/12/16 02:41:36;;;;;;;66.38;30.35;;;;;;;;;;6215385;28;20041;-91
2022/12/16 02:44:47;;;;;;;67.50;31.38;;;;;;;;;;6218663;28;20049;-90
2022/12/16 02:47:47;;;;;;;61.92;27.52;;;;;;;;;;6218179;28;20022;-90
2022/12/16 02:50:49;;;;;;;58.67;28.27;;;;;;;;;;6216492;28;20018;-90
2022/12/16 02:53:50;;;;;;;;;;;;;;;;;;6218709;28;20605;-90
2022/12/16 02:56:50;;;;;;;71.57;29.73;;;;;;;;;;6218750;28;20016;-90
2022/12/16 02:59:58;;;;;;;67.47;30.73;;;;;;;;;;6227396;28;20079;-90
2022/12/16 03:03:01;;;;;;;70.00;31.70;;;;;;;;;;6240678;28;20054;-90
2022/12/16 03:06:02;;;;;;;72.70;32.17;;;;;;;;;;6237098;28;20010;-90
2022/12/16 03:09:05;;;;;;;71.15;32.08;;;;;;;;;;6221707;28;20135;-90
2022/12/16 03:12:09;;;;;;;67.78;31.58;;;;;;;;;;6213398;28;20409;-90
2022/12/16 03:15:12;;;;;;;71.25;30.77;;;;;;;;;;6204825;28;20113;-89
2022/12/16 03:18:12;;;;;;;66.38;31.80;;;;;;;;;;6222558;28;20695;-89
2022/12/16 03:21:13;;;;;;;66.70;30.67;;;;;;;;;;6220894;28;20046;-89
2022/12/16 03:24:14;;;;;;;48.57;22.03;;;;;;;;;;6216286;28;20003;-89
2022/12/16 03:27:14;;;;;;;68.20;30.93;;;;;;;;;;6222374;28;20029;-90
2022/12/16 03:30:16;;;;;;;58.63;23.77;;;;;;;;;;6218732;28;20053;-89
2022/12/16 03:33:16;;;;;;;;;;;;;;;;;;6226590;28;20025;-88
2022/12/16 03:36:20;;;;;;;75.07;28.15;;;;;;;;;;6224562;28;19932;-89
2022/12/16 03:39:22;;;;;;;58.33;28.92;;;;;;;;;;6224642;28;20118;-88
2022/12/16 03:42:22;;;;;;;61.70;30.25;;;;;;;;;;6218019;28;20014;-88
2022/12/16 03:45:28;;;;;;;51.60;23.73;;;;;;;;;;6220748;28;20022;-89
2022/12/16 03:48:28;;;;;;;58.95;28.70;;;;;;;;;;6220686;28;20439;-89
2022/12/16 03:51:28;;;;;;;52.23;24.73;;;;;;;;;;6220622;28;20265;-86
2022/12/16 03:54:28;;;;;;;51.67;26.63;;;;;;;;;;6217557;28;20044;-86
2022/12/16 03:57:28;;;;;;;63.47;29.30;;;;;;;;;;6220015;28;20009;-88
2022/12/16 04:00:29;;;;;;;63.97;28.05;;;;;;;;;;6220638;28;20018;-86
2022/12/16 04:03:29;;;;;;;57.47;24.70;;;;;;;;;;6219313;28;20106;-89
2022/12/16 04:06:29;;;;;;;53.03;27.47;;;;;;;;;;6219588;28;20017;-88
2022/12/16 04:09:29;;;;;;;49.63;23.50;;;;;;;;;;6219810;28;19998;-86
2022/12/16 04:25:52;;;;;;;47.55;23.55;;;;;;;;;;6216261;28;20026;-86
2022/12/16 04:28:52;;;;;;;47.27;24.67;;;;;;;;;;6220776;28;20171;-86
2022/12/16 04:31:55;;;;;;;46.00;22.75;;;;;;;;;;6220433;28;20014;-86
